createdAt,value
2023-02-15T00:00:31.995Z,259000
2023-02-15T00:01:33.906Z,259000
2023-02-15T00:02:35.799Z,259613
2023-02-15T00:03:37.637Z,259613
2023-02-15T00:04:39.606Z,258593
2023-02-15T00:05:41.457Z,259000
2023-02-15T00:06:43.240Z,258391
2023-02-15T00:07:45.167Z,259613
2023-02-15T00:08:47.097Z,259817
2023-02-15T00:09:48.856Z,259817
2023-02-15T00:10:50.799Z,259000
2023-02-15T00:11:52.718Z,259000
2023-02-15T00:12:54.629Z,260023
2023-02-15T00:13:56.590Z,259000
2023-02-15T00:14:58.616Z,258797
2023-02-15T00:16:01.865Z,259000
2023-02-15T00:17:12.650Z,258797
2023-02-15T00:18:14.415Z,259000
2023-02-15T00:19:16.307Z,259000
2023-02-15T00:20:18.108Z,259000
2023-02-15T00:21:19.947Z,259408
2023-02-15T00:22:21.914Z,259000
2023-02-15T00:23:23.725Z,260228
2023-02-15T00:24:25.673Z,261675
2023-02-15T00:25:27.509Z,259000
2023-02-15T00:26:29.440Z,260228
2023-02-15T00:27:31.385Z,259613
2023-02-15T00:28:33.185Z,260434
2023-02-15T00:29:35.788Z,261260
2023-02-15T00:30:37.163Z,261053
2023-02-15T00:31:39.437Z,259408
2023-02-15T00:32:40.775Z,261675
2023-02-15T00:33:43.100Z,261053
2023-02-15T00:34:44.524Z,260846
2023-02-15T00:35:46.410Z,259817
2023-02-15T00:36:48.368Z,261260
2023-02-15T00:37:50.584Z,258188
2023-02-15T00:38:52.041Z,261468
2023-02-15T00:39:54.107Z,261675
2023-02-15T00:40:55.764Z,259613
2023-02-15T00:41:58.246Z,259613
2023-02-15T00:42:59.547Z,261675
2023-02-15T00:44:01.527Z,261675
2023-02-15T00:45:03.524Z,259817
2023-02-15T00:46:06.128Z,260846
2023-02-15T00:47:07.164Z,260023
2023-02-15T00:48:09.113Z,259817
2023-02-15T00:49:10.964Z,260434
2023-02-15T00:50:13.070Z,261468
2023-02-15T00:51:14.655Z,260023
2023-02-15T00:52:16.497Z,261053
2023-02-15T00:53:18.517Z,260023
2023-02-15T00:54:20.376Z,260640
2023-02-15T00:55:22.155Z,260846
2023-02-15T00:56:24.175Z,259204
2023-02-15T00:57:26.119Z,262510
2023-02-15T00:58:27.815Z,261053
2023-02-15T00:59:29.715Z,261883
2023-02-15T01:00:31.740Z,260023
2023-02-15T01:01:33.902Z,260228
2023-02-15T01:02:35.456Z,260228
2023-02-15T01:03:37.396Z,259817
2023-02-15T01:04:39.506Z,261883
2023-02-15T01:05:41.078Z,261260
2023-02-15T01:06:43.000Z,260640
2023-02-15T01:07:44.845Z,261468
2023-02-15T01:08:46.669Z,261053
2023-02-15T01:09:48.539Z,260228
2023-02-15T01:10:50.439Z,260228
2023-02-15T01:11:52.320Z,259408
2023-02-15T01:12:54.279Z,260434
2023-02-15T01:13:56.173Z,259204
2023-02-15T01:14:57.967Z,261883
2023-02-15T01:16:01.809Z,260023
2023-02-15T01:17:12.163Z,260023
2023-02-15T01:18:13.931Z,260228
2023-02-15T01:19:16.467Z,261468
2023-02-15T01:20:17.808Z,259408
2023-02-15T01:21:19.642Z,259613
2023-02-15T01:22:21.466Z,260640
2023-02-15T01:23:23.415Z,260228
2023-02-15T01:24:25.893Z,260434
2023-02-15T01:25:27.191Z,259613
2023-02-15T01:26:29.113Z,262092
2023-02-15T01:27:30.891Z,259817
2023-02-15T01:28:33.388Z,260434
2023-02-15T01:29:34.739Z,260434
2023-02-15T01:30:36.657Z,259817
2023-02-15T01:31:39.222Z,259817
2023-02-15T01:32:40.836Z,260640
2023-02-15T01:33:42.258Z,262092
2023-02-15T01:34:44.156Z,260228
2023-02-15T01:35:46.096Z,260023
2023-02-15T01:36:48.337Z,262301
2023-02-15T01:37:49.993Z,259613
2023-02-15T01:38:51.752Z,261675
2023-02-15T01:39:53.671Z,260228
2023-02-15T01:40:55.873Z,260846
2023-02-15T01:41:57.489Z,259613
2023-02-15T01:42:59.309Z,260846
2023-02-15T01:44:01.396Z,259408
2023-02-15T01:45:03.217Z,259613
2023-02-15T01:46:05.930Z,261883
2023-02-15T01:47:07.062Z,262719
2023-02-15T01:48:08.778Z,260228
2023-02-15T01:49:10.699Z,260846
2023-02-15T01:50:12.637Z,260640
2023-02-15T01:51:14.397Z,260228
2023-02-15T01:52:16.335Z,260640
2023-02-15T01:53:18.262Z,259613
2023-02-15T01:54:20.076Z,260228
2023-02-15T01:55:22.056Z,260846
2023-02-15T01:56:23.922Z,261883
2023-02-15T01:57:25.693Z,261053
2023-02-15T01:58:27.602Z,263139
2023-02-15T01:59:29.524Z,260846
2023-02-15T02:00:31.346Z,260228
2023-02-15T02:01:33.483Z,260846
2023-02-15T02:02:35.546Z,260228
2023-02-15T02:03:37.039Z,260434
2023-02-15T02:04:38.901Z,261675
2023-02-15T02:05:40.790Z,261053
2023-02-15T02:06:42.610Z,260846
2023-02-15T02:07:44.606Z,261675
2023-02-15T02:08:46.426Z,261675
2023-02-15T02:09:48.208Z,261675
2023-02-15T02:10:50.591Z,262301
2023-02-15T02:11:52.025Z,261468
2023-02-15T02:12:53.947Z,261675
2023-02-15T02:13:55.817Z,263139
2023-02-15T02:14:58.334Z,264832
2023-02-15T02:16:01.349Z,261260
2023-02-15T02:17:11.736Z,261468
2023-02-15T02:18:13.926Z,262092
2023-02-15T02:19:16.024Z,262719
2023-02-15T02:20:17.380Z,264406
2023-02-15T02:21:19.340Z,261883
2023-02-15T02:22:21.161Z,261675
2023-02-15T02:23:23.641Z,263349
2023-02-15T02:24:25.045Z,262092
2023-02-15T02:25:26.826Z,262301
2023-02-15T02:26:28.684Z,263139
2023-02-15T02:27:31.143Z,262929
2023-02-15T02:28:32.548Z,264194
2023-02-15T02:29:34.388Z,262301
2023-02-15T02:30:37.308Z,261675
2023-02-15T02:31:39.385Z,262301
2023-02-15T02:32:50.386Z,264194
2023-02-15T02:33:52.409Z,262301
2023-02-15T02:34:54.487Z,262719
2023-02-15T02:35:56.534Z,264194
2023-02-15T02:36:58.025Z,265045
2023-02-15T02:37:59.911Z,263139
2023-02-15T02:39:01.774Z,262510
2023-02-15T02:40:03.976Z,263983
2023-02-15T02:41:05.471Z,262929
2023-02-15T02:42:07.453Z,265045
2023-02-15T02:43:09.255Z,262719
2023-02-15T02:44:11.409Z,261260
2023-02-15T02:45:12.981Z,265045
2023-02-15T02:46:15.081Z,264194
2023-02-15T02:47:17.076Z,263349
2023-02-15T02:48:18.580Z,263771
2023-02-15T02:49:20.525Z,263349
2023-02-15T02:50:22.410Z,264832
2023-02-15T02:51:24.295Z,263771
2023-02-15T02:52:26.110Z,263983
2023-02-15T02:53:28.007Z,263349
2023-02-15T02:54:29.979Z,264406
2023-02-15T02:55:31.776Z,264406
2023-02-15T02:56:33.603Z,265472
2023-02-15T02:57:35.543Z,263771
2023-02-15T02:58:37.450Z,265472
2023-02-15T02:59:39.262Z,263771
2023-02-15T03:00:41.199Z,264406
2023-02-15T03:01:43.340Z,264406
2023-02-15T03:02:45.393Z,264406
2023-02-15T03:03:46.873Z,262929
2023-02-15T03:04:49.124Z,266116
2023-02-15T03:05:50.693Z,263349
2023-02-15T03:06:52.590Z,264406
2023-02-15T03:07:54.456Z,264832
2023-02-15T03:08:56.300Z,264194
2023-02-15T03:09:58.184Z,265045
2023-02-15T03:11:00.103Z,264406
2023-02-15T03:12:01.934Z,263983
2023-02-15T03:13:03.969Z,263560
2023-02-15T03:14:06.291Z,264619
2023-02-15T03:15:07.647Z,263349
2023-02-15T03:16:10.004Z,264619
2023-02-15T03:17:11.498Z,263983
2023-02-15T03:18:13.744Z,263560
2023-02-15T03:19:15.173Z,264619
2023-02-15T03:20:17.200Z,265258
2023-02-15T03:21:19.062Z,264406
2023-02-15T03:22:21.311Z,266116
2023-02-15T03:23:22.692Z,265472
2023-02-15T03:24:27.573Z,265045
2023-02-15T03:25:36.783Z,264406
2023-02-15T03:26:39.242Z,264194
2023-02-15T03:27:40.539Z,265258
2023-02-15T03:28:42.531Z,265045
2023-02-15T03:29:44.359Z,265901
2023-02-15T03:30:46.841Z,264194
2023-02-15T03:31:48.677Z,263983
2023-02-15T03:32:50.059Z,264406
2023-02-15T03:33:51.892Z,265045
2023-02-15T03:34:54.025Z,264406
2023-02-15T03:35:55.766Z,266116
2023-02-15T03:36:57.472Z,265901
2023-02-15T03:37:59.634Z,265045
2023-02-15T03:39:01.422Z,265901
2023-02-15T03:40:03.366Z,265045
2023-02-15T03:41:05.064Z,265045
2023-02-15T03:42:06.882Z,265045
2023-02-15T03:43:08.833Z,266331
2023-02-15T03:44:10.695Z,267412
2023-02-15T03:45:12.566Z,266762
2023-02-15T03:46:14.663Z,267412
2023-02-15T03:47:16.321Z,265045
2023-02-15T03:48:18.125Z,267629
2023-02-15T03:49:20.099Z,266546
2023-02-15T03:50:21.978Z,265472
2023-02-15T03:51:23.900Z,267195
2023-02-15T03:52:25.776Z,265901
2023-02-15T03:53:27.662Z,266331
2023-02-15T03:54:29.575Z,266546
2023-02-15T03:55:31.442Z,267195
2023-02-15T03:56:33.313Z,265045
2023-02-15T03:57:35.191Z,266546
2023-02-15T03:58:37.130Z,266116
2023-02-15T03:59:38.977Z,266546
2023-02-15T04:00:41.632Z,266762
2023-02-15T04:01:43.074Z,265045
2023-02-15T04:02:45.086Z,265045
2023-02-15T04:03:46.796Z,266762
2023-02-15T04:04:49.194Z,266546
2023-02-15T04:05:50.709Z,265901
2023-02-15T04:06:52.496Z,265258
2023-02-15T04:07:54.197Z,267847
2023-02-15T04:08:56.638Z,266978
2023-02-15T04:09:58.111Z,264832
2023-02-15T04:10:59.904Z,265901
2023-02-15T04:12:01.855Z,266331
2023-02-15T04:13:04.288Z,265472
2023-02-15T04:14:05.674Z,266116
2023-02-15T04:15:07.536Z,266546
2023-02-15T04:16:09.963Z,267195
2023-02-15T04:17:11.546Z,265901
2023-02-15T04:18:13.193Z,266546
2023-02-15T04:19:15.038Z,266762
2023-02-15T04:20:16.901Z,267629
2023-02-15T04:21:18.990Z,266546
2023-02-15T04:22:20.782Z,265686
2023-02-15T04:23:22.578Z,266978
2023-02-15T04:24:24.441Z,267629
2023-02-15T04:25:26.400Z,265472
2023-02-15T04:26:28.278Z,266116
2023-02-15T04:27:30.113Z,265686
2023-02-15T04:28:32.092Z,267847
2023-02-15T04:29:33.974Z,265901
2023-02-15T04:30:35.939Z,265472
2023-02-15T04:31:38.341Z,265901
2023-02-15T04:32:39.698Z,265686
2023-02-15T04:33:41.405Z,266762
2023-02-15T04:34:43.575Z,265472
2023-02-15T04:35:45.522Z,265901
2023-02-15T04:36:47.543Z,266762
2023-02-15T04:37:49.311Z,267195
2023-02-15T04:38:51.165Z,267195
2023-02-15T04:39:53.084Z,266546
2023-02-15T04:40:54.943Z,266762
2023-02-15T04:41:56.844Z,265472
2023-02-15T04:42:59.143Z,265472
2023-02-15T04:44:00.513Z,266762
2023-02-15T04:45:02.525Z,266978
2023-02-15T04:46:06.089Z,265686
2023-02-15T04:47:16.554Z,267629
2023-02-15T04:48:18.372Z,265258
2023-02-15T04:49:20.383Z,266546
2023-02-15T04:50:22.144Z,266116
2023-02-15T04:51:24.649Z,267195
2023-02-15T04:52:25.968Z,268502
2023-02-15T04:53:27.958Z,266116
2023-02-15T04:54:29.662Z,266546
2023-02-15T04:55:32.028Z,268721
2023-02-15T04:56:33.474Z,267195
2023-02-15T04:57:35.487Z,268721
2023-02-15T04:58:37.257Z,266116
2023-02-15T04:59:39.621Z,267195
2023-02-15T05:00:40.952Z,267195
2023-02-15T05:01:43.054Z,265901
2023-02-15T05:02:44.776Z,268283
2023-02-15T05:03:47.011Z,268283
2023-02-15T05:04:48.578Z,267195
2023-02-15T05:05:50.505Z,268502
2023-02-15T05:06:52.285Z,265686
2023-02-15T05:07:54.416Z,266762
2023-02-15T05:08:56.196Z,268941
2023-02-15T05:09:58.019Z,267412
2023-02-15T05:10:59.816Z,266762
2023-02-15T05:12:01.766Z,269380
2023-02-15T05:13:03.591Z,268283
2023-02-15T05:14:05.668Z,267629
2023-02-15T05:15:07.394Z,268941
2023-02-15T05:16:09.725Z,268941
2023-02-15T05:17:11.222Z,269380
2023-02-15T05:18:13.124Z,267412
2023-02-15T05:19:14.998Z,268502
2023-02-15T05:20:16.908Z,269380
2023-02-15T05:21:18.838Z,267629
2023-02-15T05:22:20.967Z,268721
2023-02-15T05:23:22.546Z,270043
2023-02-15T05:24:24.603Z,269380
2023-02-15T05:25:26.421Z,269601
2023-02-15T05:26:28.323Z,267195
2023-02-15T05:27:30.233Z,270043
2023-02-15T05:28:32.011Z,269601
2023-02-15T05:29:34.545Z,269822
2023-02-15T05:30:36.781Z,270709
2023-02-15T05:31:39.310Z,269601
2023-02-15T05:32:50.380Z,270487
2023-02-15T05:33:51.871Z,269822
2023-02-15T05:34:53.822Z,269601
2023-02-15T05:35:55.733Z,269822
2023-02-15T05:36:57.558Z,269160
2023-02-15T05:37:59.890Z,269380
2023-02-15T05:39:01.415Z,270043
2023-02-15T05:40:03.358Z,270487
2023-02-15T05:41:05.084Z,269822
2023-02-15T05:42:07.420Z,270709
2023-02-15T05:43:08.934Z,270709
2023-02-15T05:44:10.849Z,270043
2023-02-15T05:45:12.664Z,270709
2023-02-15T05:46:15.438Z,268941
2023-02-15T05:47:16.375Z,268941
2023-02-15T05:48:18.335Z,269601
2023-02-15T05:49:20.162Z,269601
2023-02-15T05:50:22.532Z,270709
2023-02-15T05:51:23.936Z,270487
2023-02-15T05:52:25.856Z,270709
2023-02-15T05:53:27.628Z,271155
2023-02-15T05:54:29.890Z,271155
2023-02-15T05:55:31.582Z,270709
2023-02-15T05:56:33.339Z,271155
2023-02-15T05:57:35.144Z,269160
2023-02-15T05:58:37.157Z,270043
2023-02-15T05:59:38.984Z,270487
2023-02-15T06:00:40.904Z,271378
2023-02-15T06:01:42.670Z,270043
2023-02-15T06:02:45.010Z,270709
2023-02-15T06:03:47.253Z,270043
2023-02-15T06:04:48.356Z,272051
2023-02-15T06:05:50.258Z,270487
2023-02-15T06:06:52.066Z,270265
2023-02-15T06:07:53.958Z,272051
2023-02-15T06:08:55.915Z,271155
2023-02-15T06:09:57.823Z,272727
2023-02-15T06:10:59.715Z,271602
2023-02-15T06:12:01.573Z,270043
2023-02-15T06:13:03.466Z,269380
2023-02-15T06:14:05.260Z,270709
2023-02-15T06:15:07.255Z,272953
2023-02-15T06:16:09.343Z,271155
2023-02-15T06:17:10.919Z,272051
2023-02-15T06:18:12.948Z,270709
2023-02-15T06:19:14.824Z,270487
2023-02-15T06:20:16.598Z,271155
2023-02-15T06:21:18.547Z,272501
2023-02-15T06:22:20.479Z,270709
2023-02-15T06:23:22.356Z,272276
2023-02-15T06:24:24.884Z,271602
2023-02-15T06:25:26.232Z,272953
2023-02-15T06:26:28.101Z,271378
2023-02-15T06:27:29.918Z,272051
2023-02-15T06:28:32.357Z,272501
2023-02-15T06:29:33.877Z,271602
2023-02-15T06:30:35.648Z,271602
2023-02-15T06:31:38.091Z,271826
2023-02-15T06:32:39.824Z,271378
2023-02-15T06:33:41.126Z,270932
2023-02-15T06:34:43.104Z,272051
2023-02-15T06:35:44.984Z,272276
2023-02-15T06:36:47.393Z,272501
2023-02-15T06:37:48.786Z,275464
2023-02-15T06:38:50.674Z,273860
2023-02-15T06:39:52.462Z,271378
2023-02-15T06:40:54.701Z,271602
2023-02-15T06:41:56.377Z,272051
2023-02-15T06:42:58.086Z,272727
2023-02-15T06:43:59.997Z,273406
2023-02-15T06:45:02.071Z,272276
2023-02-15T06:46:05.994Z,273633
2023-02-15T06:47:16.021Z,271826
2023-02-15T06:48:17.809Z,272727
2023-02-15T06:49:20.031Z,272051
2023-02-15T06:50:21.651Z,272727
2023-02-15T06:51:23.473Z,274774
2023-02-15T06:52:25.348Z,272727
2023-02-15T06:53:27.439Z,273406
2023-02-15T06:54:29.158Z,272953
2023-02-15T06:55:31.014Z,272276
2023-02-15T06:56:32.803Z,271826
2023-02-15T06:57:34.915Z,272727
2023-02-15T06:58:36.626Z,273406
2023-02-15T06:59:38.509Z,273406
2023-02-15T07:00:40.497Z,272501
2023-02-15T07:01:42.587Z,274317
2023-02-15T07:02:44.121Z,273406
2023-02-15T07:03:46.001Z,273179
2023-02-15T07:04:48.247Z,271826
2023-02-15T07:05:49.714Z,274545
2023-02-15T07:06:54.741Z,273406
2023-02-15T07:08:03.894Z,274317
2023-02-15T07:09:05.658Z,273406
2023-02-15T07:10:07.597Z,273179
2023-02-15T07:11:09.546Z,274545
2023-02-15T07:12:11.286Z,274317
2023-02-15T07:13:13.368Z,272276
2023-02-15T07:14:15.191Z,274088
2023-02-15T07:15:17.112Z,273633
2023-02-15T07:16:19.268Z,274317
2023-02-15T07:17:37.558Z,275004
2023-02-15T07:18:43.383Z,274545
2023-02-15T07:19:45.175Z,272501
2023-02-15T07:20:47.132Z,274088
2023-02-15T07:21:48.901Z,273633
2023-02-15T07:22:50.865Z,272727
2023-02-15T07:23:52.660Z,273406
2023-02-15T07:24:54.639Z,272727
2023-02-15T07:25:56.536Z,274088
2023-02-15T07:26:58.361Z,274317
2023-02-15T07:28:00.390Z,275234
2023-02-15T07:29:02.524Z,273179
2023-02-15T07:30:04.493Z,273860
2023-02-15T07:31:06.305Z,275925
2023-02-15T07:32:08.167Z,273179
2023-02-15T07:33:09.728Z,273633
2023-02-15T07:34:11.638Z,273633
2023-02-15T07:35:13.505Z,273406
2023-02-15T07:36:15.387Z,274774
2023-02-15T07:37:17.336Z,272727
2023-02-15T07:38:19.200Z,274774
2023-02-15T07:39:21.046Z,272501
2023-02-15T07:40:23.008Z,271826
2023-02-15T07:41:24.897Z,272276
2023-02-15T07:42:26.708Z,273179
2023-02-15T07:43:28.689Z,273179
2023-02-15T07:44:31.537Z,272276
2023-02-15T07:45:32.647Z,272501
2023-02-15T07:46:35.018Z,272501
2023-02-15T07:47:36.461Z,272501
2023-02-15T07:48:38.749Z,272051
2023-02-15T07:49:40.189Z,272501
2023-02-15T07:50:42.098Z,272051
2023-02-15T07:51:43.974Z,272276
2023-02-15T07:52:46.272Z,272051
2023-02-15T07:53:47.729Z,270932
2023-02-15T07:54:49.650Z,273179
2023-02-15T07:55:51.438Z,272501
2023-02-15T07:56:53.579Z,271602
2023-02-15T07:57:55.272Z,271602
2023-02-15T07:58:57.329Z,272276
2023-02-15T07:59:59.152Z,272276
2023-02-15T08:01:00.870Z,272727
2023-02-15T08:02:02.680Z,271826
2023-02-15T08:03:05.421Z,271155
2023-02-15T08:04:06.676Z,272276
2023-02-15T08:05:08.340Z,272276
2023-02-15T08:06:10.229Z,272953
2023-02-15T08:07:12.152Z,272276
2023-02-15T08:08:14.040Z,270709
2023-02-15T08:09:15.996Z,273179
2023-02-15T08:10:17.853Z,272276
2023-02-15T08:11:19.716Z,271602
2023-02-15T08:12:21.551Z,274088
2023-02-15T08:13:23.510Z,270709
2023-02-15T08:14:25.411Z,270043
2023-02-15T08:15:27.572Z,265901
2023-02-15T08:16:29.466Z,260640
2023-02-15T08:17:31.114Z,256979
2023-02-15T08:18:32.935Z,255782
2023-02-15T08:19:34.874Z,254792
2023-02-15T08:20:36.684Z,253615
2023-02-15T08:21:38.613Z,252062
2023-02-15T08:22:40.486Z,252255
2023-02-15T08:23:42.438Z,252449
2023-02-15T08:24:44.210Z,253420
2023-02-15T08:25:46.181Z,252449
2023-02-15T08:26:48.563Z,252255
2023-02-15T08:27:49.871Z,255583
2023-02-15T08:28:51.887Z,254399
2023-02-15T08:29:53.796Z,254595
2023-02-15T08:30:56.401Z,255187
2023-02-15T08:31:57.973Z,253811
2023-02-15T08:32:59.360Z,254595
2023-02-15T08:34:01.301Z,255782
2023-02-15T08:35:03.726Z,255782
2023-02-15T08:36:05.138Z,257784
2023-02-15T08:37:07.262Z,254990
2023-02-15T08:38:08.806Z,257180
2023-02-15T08:39:11.038Z,255583
2023-02-15T08:40:12.594Z,256379
2023-02-15T08:41:14.396Z,256180
2023-02-15T08:42:16.321Z,255782
2023-02-15T08:43:18.285Z,255981
2023-02-15T08:44:20.112Z,255981
2023-02-15T08:45:22.038Z,256779
2023-02-15T08:46:24.045Z,255782
2023-02-15T08:47:25.692Z,254792
2023-02-15T08:48:28.315Z,255385
2023-02-15T08:49:29.503Z,255583
2023-02-15T08:50:31.351Z,257180
2023-02-15T08:51:33.243Z,257381
2023-02-15T08:52:35.143Z,257582
2023-02-15T08:53:37.012Z,256579
2023-02-15T08:54:38.893Z,258188
2023-02-15T08:55:40.874Z,257784
2023-02-15T08:56:42.714Z,256979
2023-02-15T08:57:44.564Z,257986
2023-02-15T08:58:46.528Z,259000
2023-02-15T08:59:48.537Z,256779
2023-02-15T09:00:50.368Z,256779
2023-02-15T09:01:52.810Z,257381
2023-02-15T09:02:53.942Z,257582
2023-02-15T09:03:55.935Z,257381
2023-02-15T09:04:57.753Z,258188
2023-02-15T09:05:59.613Z,257180
2023-02-15T09:07:01.415Z,258797
2023-02-15T09:08:03.360Z,256779
2023-02-15T09:09:05.206Z,257986
2023-02-15T09:10:07.099Z,258391
2023-02-15T09:11:08.994Z,259000
2023-02-15T09:12:10.944Z,257180
2023-02-15T09:13:13.254Z,257381
2023-02-15T09:14:14.714Z,259408
2023-02-15T09:15:16.579Z,257381
2023-02-15T09:16:18.676Z,259613
2023-02-15T09:17:20.844Z,257986
2023-02-15T09:18:22.175Z,258188
2023-02-15T09:19:24.026Z,257986
2023-02-15T09:20:26.146Z,258188
2023-02-15T09:21:28.282Z,258188
2023-02-15T09:22:29.658Z,260228
2023-02-15T09:23:31.645Z,256379
2023-02-15T09:24:33.507Z,258188
2023-02-15T09:25:35.589Z,258797
2023-02-15T09:26:37.308Z,258391
2023-02-15T09:27:39.130Z,260434
2023-02-15T09:28:41.005Z,257986
2023-02-15T09:29:43.102Z,258188
2023-02-15T09:30:45.248Z,258797
2023-02-15T09:31:47.085Z,259817
2023-02-15T09:32:48.656Z,258593
2023-02-15T09:33:50.570Z,259408
2023-02-15T09:34:52.359Z,259817
2023-02-15T09:35:54.228Z,259408
2023-02-15T09:36:56.088Z,261053
2023-02-15T09:37:57.946Z,259408
2023-02-15T09:38:59.865Z,258391
2023-02-15T09:40:01.825Z,258797
2023-02-15T09:41:05.052Z,259000
2023-02-15T09:42:15.932Z,260434
2023-02-15T09:43:17.782Z,259817
2023-02-15T09:44:19.827Z,259408
2023-02-15T09:45:21.602Z,260023
2023-02-15T09:46:23.692Z,260434
2023-02-15T09:47:25.307Z,261260
2023-02-15T09:48:27.399Z,259613
2023-02-15T09:49:29.263Z,260228
2023-02-15T09:50:31.007Z,259204
2023-02-15T09:51:33.107Z,260228
2023-02-15T09:52:34.787Z,259408
2023-02-15T09:53:36.746Z,259817
2023-02-15T09:54:38.570Z,261053
2023-02-15T09:55:40.539Z,260640
2023-02-15T09:56:42.430Z,260434
2023-02-15T09:57:44.273Z,260640
2023-02-15T09:58:46.142Z,259817
2023-02-15T09:59:48.669Z,259204
2023-02-15T10:00:49.981Z,261053
2023-02-15T10:01:51.800Z,260228
2023-02-15T10:02:53.798Z,261883
2023-02-15T10:03:56.218Z,260434
2023-02-15T10:04:57.785Z,259817
2023-02-15T10:05:59.436Z,260023
2023-02-15T10:07:01.323Z,261675
2023-02-15T10:08:03.755Z,260023
2023-02-15T10:09:05.045Z,260846
2023-02-15T10:10:07.001Z,259000
2023-02-15T10:11:08.873Z,260228
2023-02-15T10:12:11.216Z,260023
2023-02-15T10:13:12.654Z,261468
2023-02-15T10:14:14.503Z,260846
2023-02-15T10:15:16.513Z,261053
2023-02-15T10:16:18.711Z,261468
2023-02-15T10:17:20.218Z,262301
2023-02-15T10:18:21.982Z,261260
2023-02-15T10:19:24.188Z,260640
2023-02-15T10:20:25.870Z,262719
2023-02-15T10:21:27.662Z,260846
2023-02-15T10:22:29.715Z,261468
2023-02-15T10:23:31.629Z,260640
2023-02-15T10:24:33.409Z,260434
2023-02-15T10:25:35.437Z,261468
2023-02-15T10:26:37.269Z,261883
2023-02-15T10:27:39.126Z,260846
2023-02-15T10:28:40.966Z,261260
2023-02-15T10:29:42.939Z,263139
2023-02-15T10:30:45.368Z,260846
2023-02-15T10:31:47.426Z,260846
2023-02-15T10:32:48.549Z,260434
2023-02-15T10:33:50.339Z,259817
2023-02-15T10:34:52.382Z,261260
2023-02-15T10:35:54.618Z,260846
2023-02-15T10:36:56.047Z,261675
2023-02-15T10:37:57.891Z,261053
2023-02-15T10:38:59.793Z,260846
2023-02-15T10:40:01.810Z,261883
2023-02-15T10:41:05.070Z,261260
2023-02-15T10:42:15.844Z,260846
2023-02-15T10:43:17.824Z,261260
2023-02-15T10:44:19.658Z,261883
2023-02-15T10:45:21.693Z,261053
2023-02-15T10:46:24.123Z,262092
2023-02-15T10:47:25.440Z,260434
2023-02-15T10:48:27.300Z,260023
2023-02-15T10:49:29.189Z,260846
2023-02-15T10:50:31.796Z,260023
2023-02-15T10:51:32.873Z,260434
2023-02-15T10:52:35.013Z,260434
2023-02-15T10:53:36.811Z,261053
2023-02-15T10:54:39.244Z,260640
2023-02-15T10:55:40.605Z,260023
2023-02-15T10:56:42.544Z,262301
2023-02-15T10:57:44.412Z,260434
2023-02-15T10:58:46.833Z,260640
2023-02-15T10:59:48.212Z,260640
2023-02-15T11:00:50.112Z,260023
2023-02-15T11:01:52.363Z,261260
2023-02-15T11:02:54.237Z,260434
2023-02-15T11:03:55.737Z,260846
2023-02-15T11:04:57.858Z,260640
2023-02-15T11:05:59.684Z,261260
2023-02-15T11:07:01.538Z,261468
2023-02-15T11:08:03.278Z,260228
2023-02-15T11:09:07.239Z,260228
2023-02-15T11:10:19.068Z,261260
2023-02-15T11:11:30.018Z,260023
2023-02-15T11:12:33.398Z,259817
2023-02-15T11:13:43.857Z,259817
2023-02-15T11:14:45.605Z,260023
2023-02-15T11:15:48.267Z,260846
2023-02-15T11:16:49.313Z,261883
2023-02-15T11:17:51.274Z,261260
2023-02-15T11:18:53.115Z,259204
2023-02-15T11:19:55.446Z,259408
2023-02-15T11:20:56.867Z,260434
2023-02-15T11:21:59.136Z,260640
2023-02-15T11:23:02.642Z,260434
2023-02-15T11:24:13.382Z,261053
2023-02-15T11:25:14.783Z,259408
2023-02-15T11:26:16.603Z,259408
2023-02-15T11:27:18.724Z,259817
2023-02-15T11:28:20.922Z,259613
2023-02-15T11:29:22.351Z,261053
2023-02-15T11:30:24.569Z,260228
2023-02-15T11:31:26.636Z,259613
2023-02-15T11:32:28.165Z,259408
2023-02-15T11:33:29.970Z,258797
2023-02-15T11:34:32.249Z,260846
2023-02-15T11:35:33.753Z,259613
2023-02-15T11:36:35.737Z,260640
2023-02-15T11:37:37.631Z,259817
2023-02-15T11:38:39.508Z,259000
2023-02-15T11:39:41.470Z,259204
2023-02-15T11:40:43.227Z,261468
2023-02-15T11:41:45.228Z,259000
2023-02-15T11:42:47.139Z,258797
2023-02-15T11:43:48.958Z,259204
2023-02-15T11:44:50.869Z,260023
2023-02-15T11:45:52.748Z,260228
2023-02-15T11:46:54.600Z,259204
2023-02-15T11:47:56.600Z,260228
2023-02-15T11:48:58.448Z,261468
2023-02-15T11:50:00.342Z,259204
2023-02-15T11:51:04.128Z,260023
2023-02-15T11:52:14.519Z,261053
2023-02-15T11:53:16.398Z,258797
2023-02-15T11:54:18.195Z,259613
2023-02-15T11:55:20.220Z,260434
2023-02-15T11:56:22.070Z,258797
2023-02-15T11:57:23.927Z,258797
2023-02-15T11:58:25.865Z,260434
2023-02-15T11:59:27.781Z,259613
2023-02-15T12:00:29.544Z,259408
2023-02-15T12:01:31.496Z,260023
2023-02-15T12:02:34.143Z,260434
2023-02-15T12:03:35.759Z,259408
2023-02-15T12:04:37.176Z,257986
2023-02-15T12:05:39.101Z,259613
2023-02-15T12:06:41.422Z,257986
2023-02-15T12:07:42.831Z,257180
2023-02-15T12:08:44.917Z,257582
2023-02-15T12:09:46.668Z,260846
2023-02-15T12:10:49.131Z,259613
2023-02-15T12:11:50.331Z,257986
2023-02-15T12:12:52.412Z,259817
2023-02-15T12:13:54.218Z,258391
2023-02-15T12:14:56.430Z,257784
2023-02-15T12:15:58.166Z,258188
2023-02-15T12:16:59.839Z,258391
2023-02-15T12:18:01.755Z,257582
2023-02-15T12:19:05.710Z,257582
2023-02-15T12:20:15.973Z,259204
2023-02-15T12:21:17.774Z,259204
2023-02-15T12:22:19.706Z,258391
2023-02-15T12:23:21.806Z,257180
2023-02-15T12:24:23.495Z,257582
2023-02-15T12:25:25.493Z,258188
2023-02-15T12:26:27.281Z,258391
2023-02-15T12:27:29.027Z,257986
2023-02-15T12:28:30.968Z,257180
2023-02-15T12:29:32.784Z,256579
2023-02-15T12:30:35.160Z,256779
2023-02-15T12:31:37.474Z,256379
2023-02-15T12:32:38.804Z,257381
2023-02-15T12:33:40.705Z,256379
2023-02-15T12:34:42.405Z,257784
2023-02-15T12:35:44.226Z,257784
2023-02-15T12:36:46.185Z,258391
2023-02-15T12:37:47.978Z,257784
2023-02-15T12:38:49.843Z,256979
2023-02-15T12:39:51.901Z,256579
2023-02-15T12:40:53.657Z,256379
2023-02-15T12:41:55.601Z,255981
2023-02-15T12:42:57.488Z,256979
2023-02-15T12:43:59.300Z,257180
2023-02-15T12:45:02.389Z,257582
2023-02-15T12:46:14.085Z,255981
2023-02-15T12:47:15.322Z,255981
2023-02-15T12:48:17.335Z,257381
2023-02-15T12:49:21.821Z,254990
2023-02-15T12:50:36.319Z,256579
2023-02-15T12:51:43.937Z,256779
2023-02-15T12:52:45.510Z,255187
2023-02-15T12:53:47.396Z,256579
2023-02-15T12:54:49.189Z,255385
2023-02-15T12:55:51.333Z,255981